createdAt,value
2023-01-19T00:00:56.349Z,69.61
2023-01-19T00:03:24.491Z,69.06
2023-01-19T00:05:52.836Z,69.24
2023-01-19T00:08:21.090Z,69.64
2023-01-19T00:10:52.294Z,69.47
2023-01-19T00:13:21.881Z,68.79
2023-01-19T00:15:50.382Z,69.28
2023-01-19T00:18:18.539Z,69.09
2023-01-19T00:20:46.831Z,69.61
2023-01-19T00:23:15.225Z,69.74
2023-01-19T00:25:43.796Z,69.36
2023-01-19T00:28:12.385Z,68.74
2023-01-19T00:30:42.353Z,68.29
2023-01-19T00:33:10.848Z,68.05
2023-01-19T00:35:38.930Z,69.71
2023-01-19T00:38:07.096Z,69.52
2023-01-19T00:40:35.296Z,69.27
2023-01-19T00:43:04.307Z,69.43
2023-01-19T00:45:32.624Z,69.03
2023-01-19T00:48:02.116Z,69.01
2023-01-19T00:50:31.104Z,70.93
2023-01-19T00:53:01.373Z,69.91
2023-01-19T00:55:30.089Z,71.24
2023-01-19T00:57:58.483Z,70.34
2023-01-19T01:00:26.902Z,70.97
2023-01-19T01:02:55.120Z,70.00
2023-01-19T01:05:24.678Z,70.22
2023-01-19T01:07:52.789Z,70.39
2023-01-19T01:10:22.314Z,70.39
2023-01-19T01:12:57.493Z,68.98
2023-01-19T01:15:27.684Z,68.90
2023-01-19T01:17:56.000Z,70.72
2023-01-19T01:20:27.969Z,69.18
2023-01-19T01:22:56.942Z,68.88
2023-01-19T01:25:27.372Z,70.74
2023-01-19T01:27:56.055Z,70.46
2023-01-19T01:30:24.635Z,70.88
2023-01-19T01:32:52.813Z,70.08
2023-01-19T01:35:21.032Z,69.68
2023-01-19T01:37:50.625Z,71.42
2023-01-19T01:40:19.465Z,69.78
2023-01-19T01:42:47.507Z,69.02
2023-01-19T01:45:29.970Z,69.46
2023-01-19T01:47:59.798Z,71.99
2023-01-19T01:50:30.506Z,70.25
2023-01-19T01:53:07.573Z,69.79
2023-01-19T01:55:38.078Z,69.90
2023-01-19T01:58:07.087Z,70.32
2023-01-19T02:00:55.277Z,68.74
2023-01-19T02:03:23.875Z,70.26
2023-01-19T02:05:53.200Z,70.11
2023-01-19T02:08:45.289Z,69.07
2023-01-19T02:11:31.081Z,70.18
2023-01-19T02:13:59.399Z,69.64
2023-01-19T02:16:27.626Z,71.32
2023-01-19T02:18:55.794Z,70.12
2023-01-19T02:21:25.300Z,69.23
2023-01-19T02:23:55.955Z,69.03
2023-01-19T02:26:25.702Z,69.22
2023-01-19T02:28:55.117Z,69.05
2023-01-19T02:31:23.354Z,69.86
2023-01-19T02:33:51.928Z,70.11
2023-01-19T02:36:23.993Z,70.14
2023-01-19T02:38:53.031Z,69.86
2023-01-19T02:41:24.597Z,70.79
2023-01-19T02:43:54.050Z,69.85
2023-01-19T02:46:22.324Z,69.40
2023-01-19T02:48:50.456Z,68.31
2023-01-19T02:51:19.421Z,68.19
2023-01-19T02:54:00.241Z,69.44
2023-01-19T02:56:37.262Z,69.02
2023-01-19T02:59:08.037Z,67.59
2023-01-19T03:01:42.316Z,68.34
2023-01-19T03:04:14.741Z,69.31
2023-01-19T03:06:46.019Z,67.27
2023-01-19T03:09:19.969Z,67.46
2023-01-19T03:11:53.582Z,68.56
2023-01-19T03:14:24.474Z,67.53
2023-01-19T03:16:55.261Z,69.58
2023-01-19T03:19:24.994Z,70.19
2023-01-19T03:21:55.069Z,69.54
2023-01-19T03:24:24.010Z,69.40
2023-01-19T03:26:56.602Z,68.71
2023-01-19T03:29:26.010Z,68.10
2023-01-19T03:31:55.095Z,67.77
2023-01-19T03:34:24.279Z,66.99
2023-01-19T03:36:54.222Z,68.01
2023-01-19T03:39:23.791Z,67.56
2023-01-19T03:41:54.397Z,68.29
2023-01-19T03:44:22.585Z,68.52
2023-01-19T03:46:50.949Z,68.86
2023-01-19T03:49:19.172Z,67.60
2023-01-19T03:51:47.510Z,68.40
2023-01-19T03:54:17.801Z,68.98
2023-01-19T03:56:45.990Z,67.81
2023-01-19T03:59:17.624Z,68.29
2023-01-19T04:01:46.003Z,67.70
2023-01-19T04:04:15.602Z,68.17
2023-01-19T04:06:43.979Z,69.25
2023-01-19T04:09:12.062Z,69.07
2023-01-19T04:11:40.190Z,67.64
2023-01-19T04:14:08.358Z,68.81
2023-01-19T04:16:37.997Z,68.22
2023-01-19T04:19:06.408Z,68.50
2023-01-19T04:21:35.068Z,68.18
2023-01-19T04:24:03.159Z,67.07
2023-01-19T04:26:31.302Z,68.35
2023-01-19T04:28:59.634Z,68.48
2023-01-19T04:31:27.738Z,69.99
2023-01-19T04:33:58.444Z,70.52
2023-01-19T04:36:26.594Z,69.26
2023-01-19T04:38:54.908Z,69.86
2023-01-19T04:41:23.073Z,68.58
2023-01-19T04:43:51.381Z,69.51
2023-01-19T04:46:19.477Z,68.23
2023-01-19T04:48:47.615Z,68.97
2023-01-19T04:51:17.125Z,69.48
2023-01-19T04:53:45.255Z,70.13
2023-01-19T04:56:13.312Z,68.87
2023-01-19T04:58:41.995Z,69.49
2023-01-19T05:01:10.234Z,69.34
2023-01-19T05:03:38.360Z,68.93
2023-01-19T05:06:06.672Z,69.03
2023-01-19T05:08:36.311Z,69.79
2023-01-19T05:11:04.499Z,71.45
2023-01-19T05:13:33.595Z,69.97
2023-01-19T05:16:01.883Z,69.56
2023-01-19T05:18:30.086Z,69.93
2023-01-19T05:20:58.154Z,70.42
2023-01-19T05:23:26.262Z,69.34
2023-01-19T05:25:56.902Z,69.86
2023-01-19T05:28:24.991Z,70.06
2023-01-19T05:30:53.072Z,68.34
2023-01-19T05:33:21.663Z,68.32
2023-01-19T05:35:50.793Z,68.93
2023-01-19T05:38:23.365Z,68.67
2023-01-19T05:40:59.695Z,67.23
2023-01-19T05:43:27.864Z,68.41
2023-01-19T05:45:55.920Z,68.01
2023-01-19T05:48:24.053Z,67.79
2023-01-19T05:50:52.125Z,68.41
2023-01-19T05:53:20.530Z,67.68
2023-01-19T05:55:48.596Z,67.71
2023-01-19T05:58:18.317Z,67.06
2023-01-19T06:00:46.448Z,67.88
2023-01-19T06:03:14.533Z,68.20
2023-01-19T06:05:42.698Z,68.09
2023-01-19T06:08:10.785Z,69.33
2023-01-19T06:10:39.010Z,68.73
2023-01-19T06:13:07.497Z,69.45
2023-01-19T06:15:37.701Z,68.65
2023-01-19T06:18:05.880Z,68.08
2023-01-19T06:20:34.048Z,67.33
2023-01-19T06:23:02.446Z,69.00
2023-01-19T06:25:30.833Z,68.41
2023-01-19T06:27:59.022Z,68.33
2023-01-19T06:30:27.182Z,68.71
2023-01-19T06:32:56.792Z,69.45
2023-01-19T06:35:24.970Z,70.34
2023-01-19T06:37:53.711Z,68.92
2023-01-19T06:40:21.826Z,71.30
2023-01-19T06:42:50.302Z,70.83
2023-01-19T06:45:18.516Z,70.08
2023-01-19T06:47:48.595Z,69.66
2023-01-19T06:50:18.364Z,67.91
2023-01-19T06:52:46.570Z,68.49
2023-01-19T06:55:14.698Z,68.59
2023-01-19T06:57:44.536Z,69.64
2023-01-19T07:00:13.732Z,72.96
2023-01-19T07:02:43.653Z,70.19
2023-01-19T07:06:25.839Z,69.60
2023-01-19T07:08:55.563Z,69.97
2023-01-19T07:11:31.020Z,72.11
2023-01-19T07:14:01.579Z,72.17
2023-01-19T07:16:30.185Z,71.49
2023-01-19T07:18:58.641Z,73.70
2023-01-19T07:21:29.355Z,73.96
2023-01-19T07:23:58.495Z,73.36
2023-01-19T07:26:28.095Z,72.16
2023-01-19T07:28:57.717Z,72.22
2023-01-19T07:31:26.445Z,71.62
2023-01-19T07:33:55.097Z,70.79
2023-01-19T07:36:23.501Z,72.37
2023-01-19T07:38:53.368Z,71.90
2023-01-19T07:41:21.826Z,70.87
2023-01-19T07:43:53.375Z,72.32
2023-01-19T07:46:24.225Z,71.09
2023-01-19T07:48:52.641Z,71.88
2023-01-19T07:51:21.063Z,71.83
2023-01-19T07:53:52.590Z,71.45
2023-01-19T07:56:22.110Z,71.14
2023-01-19T07:58:52.602Z,71.14
2023-01-19T08:01:21.261Z,70.66
2023-01-19T08:03:50.282Z,71.65
2023-01-19T08:06:22.151Z,71.49
2023-01-19T08:08:52.481Z,69.94
2023-01-19T08:11:23.799Z,72.50
2023-01-19T08:13:52.284Z,72.90
2023-01-19T08:16:20.711Z,72.71
2023-01-19T08:18:49.140Z,72.84
2023-01-19T08:21:17.751Z,72.55
2023-01-19T08:23:46.033Z,72.77
2023-01-19T08:26:24.271Z,72.51
2023-01-19T08:28:52.725Z,70.61
2023-01-19T08:31:24.503Z,73.19
2023-01-19T08:33:53.459Z,73.16
2023-01-19T08:36:22.718Z,72.12
2023-01-19T08:38:51.187Z,72.25
2023-01-19T08:41:19.691Z,70.65
2023-01-19T08:43:49.657Z,71.88
2023-01-19T08:46:21.000Z,71.76
2023-01-19T08:48:50.410Z,71.67
2023-01-19T08:51:19.368Z,70.15
2023-01-19T08:53:47.814Z,70.80
2023-01-19T08:56:16.388Z,71.90
2023-01-19T08:58:53.617Z,71.07
2023-01-19T09:01:33.322Z,70.53
2023-01-19T09:04:01.983Z,71.98
2023-01-19T09:06:30.486Z,70.82
2023-01-19T09:08:58.940Z,71.81
2023-01-19T09:11:27.665Z,69.55
2023-01-19T09:13:55.753Z,70.92
2023-01-19T09:16:25.027Z,68.62
2023-01-19T09:18:57.191Z,69.86
2023-01-19T09:21:25.642Z,69.68
2023-01-19T09:23:54.875Z,68.78
2023-01-19T09:26:23.869Z,69.63
2023-01-19T09:28:52.270Z,69.82
2023-01-19T09:31:20.862Z,69.01
2023-01-19T09:33:49.293Z,67.46
2023-01-19T09:36:19.183Z,68.68
2023-01-19T09:38:47.787Z,67.95
2023-01-19T09:41:22.441Z,68.61
2023-01-19T09:43:56.025Z,68.34
2023-01-19T09:46:31.298Z,69.70
2023-01-19T09:49:08.062Z,68.79
2023-01-19T09:51:41.226Z,68.47
2023-01-19T09:54:14.641Z,69.56
2023-01-19T09:56:43.804Z,70.33
2023-01-19T09:59:21.006Z,69.64
2023-01-19T10:02:20.668Z,70.22
2023-01-19T10:05:00.414Z,70.06
2023-01-19T10:07:53.328Z,69.33
2023-01-19T10:10:23.769Z,71.09
2023-01-19T10:13:22.855Z,69.45
2023-01-19T10:16:00.651Z,71.75
2023-01-19T10:18:39.003Z,70.58
2023-01-19T10:21:13.111Z,69.20
2023-01-19T10:23:52.320Z,69.11
2023-01-19T10:26:25.904Z,70.47
2023-01-19T10:28:59.981Z,69.81
2023-01-19T10:31:29.008Z,69.14
2023-01-19T10:33:57.507Z,69.52
2023-01-19T10:36:31.054Z,70.76
2023-01-19T10:39:04.429Z,71.13
2023-01-19T10:41:45.432Z,71.02
2023-01-19T10:44:23.847Z,71.06
2023-01-19T10:46:54.536Z,70.49
2023-01-19T10:49:27.787Z,70.25
2023-01-19T10:51:57.995Z,71.61
2023-01-19T10:54:32.813Z,70.86
2023-01-19T10:57:04.851Z,71.01
2023-01-19T10:59:36.295Z,71.21
2023-01-19T11:02:20.327Z,70.05
2023-01-19T11:04:51.372Z,69.43
2023-01-19T11:07:22.211Z,70.06
2023-01-19T11:10:22.168Z,71.27
2023-01-19T11:13:01.519Z,70.60
2023-01-19T11:15:34.999Z,69.63
2023-01-19T11:18:05.999Z,69.33
2023-01-19T11:20:44.245Z,68.88
2023-01-19T11:23:25.009Z,69.08
2023-01-19T11:25:57.851Z,72.01
2023-01-19T11:28:29.963Z,71.34
2023-01-19T11:31:00.706Z,70.40
2023-01-19T11:33:36.110Z,69.37
2023-01-19T11:36:07.627Z,70.81
2023-01-19T11:38:46.036Z,71.15
2023-01-19T11:41:20.859Z,71.41
2023-01-19T11:43:52.850Z,73.07
2023-01-19T11:46:23.919Z,70.90
2023-01-19T11:49:01.992Z,70.47
2023-01-19T11:51:37.503Z,69.36
2023-01-19T11:54:17.002Z,69.36
2023-01-19T11:56:52.178Z,69.81
2023-01-19T11:59:22.365Z,70.34
2023-01-19T12:01:55.801Z,69.79
2023-01-19T12:04:29.159Z,70.36
2023-01-19T12:07:00.462Z,69.66
2023-01-19T12:09:31.668Z,71.35
2023-01-19T12:12:05.734Z,71.58
2023-01-19T12:14:39.684Z,69.68
2023-01-19T12:17:17.556Z,69.94
2023-01-19T12:19:54.968Z,69.46
2023-01-19T12:22:28.629Z,68.73
2023-01-19T12:25:03.232Z,69.06
2023-01-19T12:27:41.278Z,71.30
2023-01-19T12:30:18.589Z,71.47
2023-01-19T12:32:47.145Z,69.79
2023-01-19T12:35:53.039Z,68.87
2023-01-19T12:38:53.679Z,68.62
2023-01-19T12:41:27.820Z,68.82
2023-01-19T12:44:25.377Z,69.61
2023-01-19T12:46:57.508Z,71.47
2023-01-19T12:49:35.935Z,69.85
2023-01-19T12:52:28.195Z,70.53
2023-01-19T12:55:01.755Z,69.95
2023-01-19T12:57:36.450Z,69.90
2023-01-19T13:00:09.342Z,69.50
2023-01-19T13:02:47.810Z,69.60
2023-01-19T13:05:19.781Z,70.36
2023-01-19T13:08:16.955Z,69.00
2023-01-19T13:11:23.825Z,69.51
2023-01-19T13:14:39.501Z,70.01
2023-01-19T13:17:23.552Z,70.59
2023-01-19T13:19:59.646Z,71.97
2023-01-19T13:22:53.863Z,70.55
2023-01-19T13:25:33.732Z,70.98
2023-01-19T13:28:03.854Z,68.86
2023-01-19T13:30:36.695Z,68.83
2023-01-19T13:33:15.590Z,69.00
2023-01-19T13:35:52.839Z,69.78
2023-01-19T13:38:22.707Z,68.45
2023-01-19T13:40:52.223Z,68.97
2023-01-19T13:43:26.044Z,70.04
2023-01-19T13:45:57.327Z,70.73
2023-01-19T13:48:27.609Z,69.98
2023-01-19T13:51:01.025Z,69.29
2023-01-19T13:53:30.628Z,69.42
2023-01-19T13:56:08.483Z,69.09
2023-01-19T13:58:37.212Z,67.16
2023-01-19T14:01:05.691Z,67.26
2023-01-19T14:03:35.758Z,67.98
2023-01-19T14:06:04.523Z,67.63
2023-01-19T14:08:33.947Z,67.94
2023-01-19T14:11:03.596Z,68.79
2023-01-19T14:13:33.317Z,68.36
2023-01-19T14:16:07.016Z,68.77
2023-01-19T14:18:37.950Z,68.68
2023-01-19T14:21:09.039Z,68.41
2023-01-19T14:23:49.477Z,68.56
2023-01-19T14:26:40.300Z,69.02
2023-01-19T14:29:16.913Z,69.18
2023-01-19T14:31:46.636Z,69.78
2023-01-19T14:34:33.110Z,69.08
2023-01-19T14:37:25.433Z,69.54
2023-01-19T14:40:00.482Z,70.18
2023-01-19T14:42:32.532Z,70.71
2023-01-19T14:45:02.915Z,69.54
2023-01-19T14:47:37.077Z,71.09
2023-01-19T14:50:20.287Z,71.88
2023-01-19T14:52:55.960Z,70.68
2023-01-19T14:55:30.990Z,70.57
2023-01-19T14:57:59.661Z,71.43
2023-01-19T15:00:28.534Z,71.67
2023-01-19T15:02:57.161Z,71.73
2023-01-19T15:05:27.060Z,71.86
2023-01-19T15:07:55.654Z,70.21
2023-01-19T15:10:25.889Z,69.61
2023-01-19T15:12:56.151Z,69.80
2023-01-19T15:15:29.615Z,69.16
2023-01-19T15:17:58.960Z,69.96
2023-01-19T15:20:29.458Z,70.81
2023-01-19T15:22:57.958Z,70.09
2023-01-19T15:25:27.080Z,68.61
2023-01-19T15:27:59.969Z,70.64
2023-01-19T15:30:31.179Z,70.71
2023-01-19T15:33:00.190Z,69.87
2023-01-19T15:35:29.995Z,69.03
2023-01-19T15:37:58.668Z,69.41
2023-01-19T15:40:30.202Z,69.82
2023-01-19T15:42:58.772Z,68.92
2023-01-19T15:45:36.433Z,70.67
2023-01-19T15:48:06.838Z,71.53
2023-01-19T15:50:39.012Z,70.98
2023-01-19T15:53:08.076Z,71.28
2023-01-19T15:55:36.837Z,70.62
2023-01-19T15:58:05.060Z,70.32
2023-01-19T16:00:34.954Z,68.86
2023-01-19T16:03:04.680Z,69.69
2023-01-19T16:05:42.464Z,71.13
2023-01-19T16:08:13.020Z,69.27
2023-01-19T16:10:41.909Z,69.63
2023-01-19T16:13:11.056Z,70.59
2023-01-19T16:15:42.415Z,71.07
2023-01-19T16:18:11.099Z,69.87
2023-01-19T16:20:39.307Z,69.61
2023-01-19T16:23:15.625Z,69.48
2023-01-19T16:25:45.962Z,70.69
2023-01-19T16:28:14.627Z,71.51
2023-01-19T16:30:43.070Z,71.70
2023-01-19T16:33:13.968Z,70.47
2023-01-19T16:35:42.711Z,71.26
2023-01-19T16:38:10.971Z,71.61
2023-01-19T16:40:40.081Z,70.33
2023-01-19T16:43:10.072Z,69.38
2023-01-19T16:45:56.625Z,69.13
2023-01-19T16:48:25.499Z,69.81
2023-01-19T16:50:59.609Z,70.18
2023-01-19T16:53:28.289Z,70.10
2023-01-19T16:55:57.026Z,70.55
2023-01-19T16:58:27.606Z,71.68
2023-01-19T17:00:56.353Z,71.02
2023-01-19T17:03:24.664Z,70.78
2023-01-19T17:05:53.724Z,70.14
2023-01-19T17:08:22.500Z,69.62
2023-01-19T17:10:50.972Z,69.58
2023-01-19T17:13:19.799Z,69.08
2023-01-19T17:15:50.452Z,71.39
2023-01-19T17:18:19.227Z,69.66
2023-01-19T17:20:50.485Z,70.86
2023-01-19T17:23:19.176Z,69.54
2023-01-19T17:25:53.099Z,70.45
2023-01-19T17:28:22.122Z,71.26
2023-01-19T17:30:52.997Z,70.39
2023-01-19T17:33:23.009Z,69.25
2023-01-19T17:35:52.193Z,69.71
2023-01-19T17:38:20.893Z,70.14
2023-01-19T17:40:49.184Z,70.85
2023-01-19T17:43:17.906Z,71.15
2023-01-19T17:45:46.665Z,70.61
2023-01-19T17:48:17.734Z,69.40
2023-01-19T17:50:46.558Z,70.30
2023-01-19T17:53:14.792Z,70.84
2023-01-19T17:55:44.034Z,70.11
2023-01-19T17:58:13.257Z,70.33
2023-01-19T18:00:42.193Z,71.52
2023-01-19T18:03:11.193Z,72.73
2023-01-19T18:05:41.481Z,73.20
2023-01-19T18:08:11.968Z,71.74
2023-01-19T18:10:44.516Z,70.91
2023-01-19T18:13:16.576Z,71.76
2023-01-19T18:15:45.321Z,71.42
2023-01-19T18:18:13.941Z,70.45
2023-01-19T18:20:44.819Z,70.54
2023-01-19T18:23:14.506Z,71.17
2023-01-19T18:25:43.449Z,71.96
2023-01-19T18:28:12.259Z,71.05
2023-01-19T18:30:41.497Z,71.15
2023-01-19T18:33:10.227Z,72.45
2023-01-19T18:35:40.533Z,71.12
2023-01-19T18:38:11.679Z,71.30
2023-01-19T18:40:40.875Z,73.44
2023-01-19T18:43:09.655Z,71.25
2023-01-19T18:45:39.913Z,71.94
2023-01-19T18:48:09.107Z,71.10
2023-01-19T18:50:39.782Z,71.49
2023-01-19T18:53:09.107Z,70.91
2023-01-19T18:55:39.449Z,69.97
2023-01-19T18:58:09.057Z,70.20
2023-01-19T19:00:38.316Z,72.40
2023-01-19T19:03:15.052Z,70.44
2023-01-19T19:05:44.047Z,70.68
2023-01-19T19:08:12.892Z,70.62
2023-01-19T19:10:43.364Z,70.74
2023-01-19T19:13:14.399Z,69.42
2023-01-19T19:15:44.676Z,70.05
2023-01-19T19:18:14.239Z,70.96
2023-01-19T19:20:43.586Z,71.75
2023-01-19T19:23:12.929Z,72.54
2023-01-19T19:25:43.153Z,71.80
2023-01-19T19:28:12.115Z,71.04
2023-01-19T19:30:41.704Z,69.79
2023-01-19T19:33:10.459Z,70.64
2023-01-19T19:35:38.952Z,71.30
2023-01-19T19:38:07.611Z,70.84
2023-01-19T19:40:36.397Z,71.69
2023-01-19T19:43:06.605Z,71.75
2023-01-19T19:45:36.111Z,71.17
2023-01-19T19:48:05.187Z,71.36
2023-01-19T19:50:36.408Z,72.47
2023-01-19T19:53:05.825Z,71.38
2023-01-19T19:55:34.863Z,71.26
2023-01-19T19:58:03.785Z,70.84
2023-01-19T20:00:34.484Z,71.71
2023-01-19T20:03:03.783Z,71.24
2023-01-19T20:05:32.980Z,70.56
2023-01-19T20:08:02.579Z,70.47
2023-01-19T20:10:32.327Z,70.17
2023-01-19T20:13:01.410Z,69.20
2023-01-19T20:15:29.943Z,71.29
2023-01-19T20:18:00.239Z,71.86
2023-01-19T20:20:31.615Z,71.23
2023-01-19T20:23:00.931Z,70.51
2023-01-19T20:25:30.133Z,71.13
2023-01-19T20:27:59.500Z,69.74
2023-01-19T20:30:28.536Z,70.61
2023-01-19T20:32:57.283Z,70.68
2023-01-19T20:35:27.618Z,69.11
2023-01-19T20:37:56.625Z,69.06
2023-01-19T20:40:25.573Z,70.43
2023-01-19T20:42:54.532Z,69.61
2023-01-19T20:45:23.482Z,69.44
2023-01-19T20:47:52.681Z,68.92
2023-01-19T20:50:21.704Z,69.20
2023-01-19T20:52:51.832Z,68.97
2023-01-19T20:55:20.443Z,69.37
2023-01-19T20:57:49.365Z,68.34
2023-01-19T21:00:18.392Z,68.49
2023-01-19T21:02:47.612Z,69.21
2023-01-19T21:05:16.608Z,69.20
2023-01-19T21:07:45.567Z,69.47
2023-01-19T21:10:16.246Z,69.96
2023-01-19T21:12:48.669Z,70.72
2023-01-19T21:15:19.270Z,69.90
2023-01-19T21:17:49.739Z,68.92
2023-01-19T21:20:19.942Z,70.27
2023-01-19T21:22:53.115Z,70.01
2023-01-19T21:25:23.795Z,69.95
2023-01-19T21:27:55.032Z,70.30
2023-01-19T21:30:24.661Z,70.09
2023-01-19T21:32:53.546Z,69.36
2023-01-19T21:35:22.722Z,70.26
2023-01-19T21:37:51.812Z,70.65
2023-01-19T21:40:25.442Z,71.36
2023-01-19T21:42:54.512Z,70.75
2023-01-19T21:45:23.878Z,70.19
2023-01-19T21:47:52.668Z,70.10
2023-01-19T21:50:23.748Z,71.22
2023-01-19T21:52:53.146Z,70.97
2023-01-19T21:55:23.407Z,69.97
2023-01-19T21:57:53.605Z,72.14
2023-01-19T22:00:23.292Z,71.32
2023-01-19T22:03:03.421Z,70.59
2023-01-19T22:05:36.922Z,69.43
2023-01-19T22:08:11.149Z,69.60
2023-01-19T22:10:41.826Z,69.58
2023-01-19T22:13:10.674Z,69.41
2023-01-19T22:15:39.146Z,70.49
2023-01-19T22:18:08.018Z,69.54
2023-01-19T22:20:37.106Z,70.01
2023-01-19T22:23:06.189Z,69.71
2023-01-19T22:25:36.073Z,69.62
2023-01-19T22:28:06.897Z,69.38
2023-01-19T22:30:39.295Z,69.84
2023-01-19T22:33:08.489Z,70.36
2023-01-19T22:35:37.708Z,70.44
2023-01-19T22:38:06.670Z,70.70
2023-01-19T22:40:36.822Z,70.70
2023-01-19T22:43:07.535Z,70.58
2023-01-19T22:45:43.441Z,69.88
2023-01-19T22:48:15.683Z,70.33
2023-01-19T22:50:45.403Z,69.13
2023-01-19T22:53:14.463Z,70.65
2023-01-19T22:55:43.437Z,71.80
2023-01-19T22:58:14.422Z,69.54
2023-01-19T23:00:43.743Z,69.35
2023-01-19T23:03:13.013Z,68.82
2023-01-19T23:05:42.149Z,68.66
2023-01-19T23:08:11.275Z,68.95
2023-01-19T23:10:40.744Z,71.41
2023-01-19T23:13:09.653Z,70.56
2023-01-19T23:15:40.347Z,71.05
2023-01-19T23:18:09.377Z,70.55
2023-01-19T23:20:38.397Z,70.42
2023-01-19T23:23:07.767Z,71.03
2023-01-19T23:25:36.502Z,70.71
2023-01-19T23:28:05.227Z,70.59
2023-01-19T23:30:34.380Z,71.28
2023-01-19T23:33:04.918Z,71.12
2023-01-19T23:35:36.217Z,70.34
2023-01-19T23:38:05.062Z,71.17
2023-01-19T23:40:34.100Z,71.44
2023-01-19T23:43:02.881Z,71.38
2023-01-19T23:45:31.623Z,71.02
2023-01-19T23:48:00.607Z,70.65
2023-01-19T23:50:31.105Z,70.38
2023-01-19T23:53:00.336Z,69.66
2023-01-19T23:55:29.341Z,68.54
2023-01-19T23:57:58.135Z,70.21
